NCAR-RAP Real-Time Weather Data

Output produced by METARs form (10 April 2020  07:26 UTC)
found at http://weather.rap.ucar.edu/surface/
 
KBOS 100654Z 25017G22KT 10SM FEW065 04/M06 A2913 RMK AO2 PK WND 24028/0557 SLP864 T00441056 $